Time;durP1;ratioP1;P1;durP2;ratioP2;P2;SDS_P1;SDS_P2;PMS_P1;PMS_P2;Temp;Humidity;BMP_temperature;BMP_pressure;BME280_temperature;BME280_humidity;BME280_pressure;Samples;Min_cycle;Max_cycle;Signal;HPM_P1;HPM_P2
2021/12/22 00:02:16;;;;;;;20.50;13.90;;;-1.30;99.90;;;;;;5007159;28;20276;-79
2021/12/22 00:04:45;;;;;;;20.77;13.80;;;-1.10;99.90;;;;;;4994061;28;20202;-79
2021/12/22 00:07:18;;;;;;;22.90;14.03;;;-1.00;99.90;;;;;;4958431;28;20192;-78
2021/12/22 00:09:47;;;;;;;19.80;13.43;;;-1.00;99.90;;;;;;4965972;28;20204;-78
2021/12/22 00:12:13;;;;;;;26.47;15.33;;;-1.20;99.90;;;;;;4968075;28;20170;-80
2021/12/22 00:14:38;;;;;;;19.97;14.00;;;-1.20;99.90;;;;;;5000081;28;20264;-78
2021/12/22 00:17:04;;;;;;;19.77;13.83;;;-1.20;99.90;;;;;;4964222;28;20190;-79
2021/12/22 00:19:31;;;;;;;20.00;13.30;;;-1.20;99.90;;;;;;4991307;28;20212;-79
2021/12/22 00:21:56;;;;;;;18.20;12.97;;;-1.10;99.90;;;;;;4998767;28;20228;-78
2021/12/22 00:24:22;;;;;;;19.50;13.73;;;-1.00;99.90;;;;;;4966557;28;20182;-77
2021/12/22 00:26:48;;;;;;;22.37;13.80;;;-1.10;99.90;;;;;;4991671;28;20219;-78
2021/12/22 00:29:16;;;;;;;20.90;13.80;;;-1.30;99.90;;;;;;4948869;28;20201;-78
2021/12/22 00:31:56;;;;;;;18.80;14.10;;;-1.30;99.90;;;;;;4997004;28;20196;-78
2021/12/22 00:34:25;;;;;;;19.63;14.30;;;-1.30;99.90;;;;;;4966467;28;20171;-78
2021/12/22 00:36:50;;;;;;;20.17;13.73;;;-1.40;99.90;;;;;;4973454;28;20188;-78
2021/12/22 00:39:16;;;;;;;21.63;13.77;;;-1.50;99.90;;;;;;4952612;28;20560;-79
2021/12/22 00:41:42;;;;;;;20.93;14.80;;;-1.70;99.90;;;;;;4971800;28;20214;-79
2021/12/22 00:44:09;;;;;;;21.90;14.73;;;-1.70;99.90;;;;;;4973679;28;20172;-78
2021/12/22 00:46:35;;;;;;;23.57;14.00;;;-1.80;99.90;;;;;;4994235;28;20247;-77
2021/12/22 00:49:00;;;;;;;22.60;13.73;;;-2.00;99.90;;;;;;4955672;28;20197;-78
2021/12/22 00:51:27;;;;;;;22.57;13.73;;;-1.90;99.90;;;;;;5001526;28;20188;-78
2021/12/22 00:53:53;;;;;;;19.03;13.73;;;-1.90;99.90;;;;;;4997653;28;20227;-78
2021/12/22 00:56:18;;;;;;;21.47;13.47;;;-1.70;99.90;;;;;;4989636;28;20188;-78
2021/12/22 00:58:44;;;;;;;22.67;14.77;;;-1.80;99.90;;;;;;4990045;28;20262;-78
2021/12/22 01:01:13;;;;;;;21.67;13.97;;;-1.80;99.90;;;;;;4997069;28;20180;-78
2021/12/22 01:03:42;;;;;;;18.13;13.13;;;-1.80;99.90;;;;;;5008393;28;20189;-78
2021/12/22 01:06:14;;;;;;;21.73;13.87;;;-1.90;99.90;;;;;;5040294;28;20204;-77
2021/12/22 01:08:41;;;;;;;21.93;13.77;;;-1.90;99.90;;;;;;4970468;28;20226;-77
2021/12/22 01:11:08;;;;;;;22.70;13.50;;;-2.00;99.90;;;;;;4978034;28;20161;-77
2021/12/22 01:13:39;;;;;;;21.03;13.73;;;-2.10;99.90;;;;;;4985758;28;20182;-77
2021/12/22 01:16:21;;;;;;;26.47;13.83;;;-1.80;99.90;;;;;;5011281;28;20257;-78
2021/12/22 01:18:47;;;;;;;23.70;13.53;;;-1.50;99.90;;;;;;4949706;28;20199;-79
2021/12/22 01:21:29;;;;;;;21.47;12.90;;;-1.50;99.90;;;;;;4998059;28;20181;-78
2021/12/22 01:24:20;;;;;;;19.77;13.30;;;-1.50;99.90;;;;;;4971263;28;20214;-77
2021/12/22 01:26:51;;;;;;;19.90;12.67;;;-1.70;99.90;;;;;;4984836;28;20221;-78
2021/12/22 01:29:18;;;;;;;19.10;12.60;;;-1.40;99.90;;;;;;4981206;28;20200;-76
2021/12/22 01:31:43;;;;;;;22.90;13.90;;;-1.50;99.90;;;;;;5011612;28;20192;-76
2021/12/22 01:34:10;;;;;;;20.33;13.27;;;-1.60;99.90;;;;;;4995223;28;20177;-76
2021/12/22 01:36:38;;;;;;;21.03;13.57;;;-1.70;99.90;;;;;;4982710;28;20204;-76
2021/12/22 01:39:05;;;;;;;25.03;12.93;;;-1.70;99.90;;;;;;4984545;28;20200;-76
2021/12/22 01:41:31;;;;;;;19.37;12.80;;;-1.80;99.90;;;;;;4980495;28;20174;-77
2021/12/22 01:43:56;;;;;;;21.17;12.53;;;-1.70;99.90;;;;;;4956494;28;20230;-78
2021/12/22 01:49:14;;;;;;;18.70;12.80;;;-1.70;99.90;;;;;;4992389;28;20210;-78
2021/12/22 01:52:01;;;;;;;23.40;12.83;;;-1.70;99.90;;;;;;4985499;28;20185;-77
2021/12/22 01:54:51;;;;;;;19.47;11.87;;;-1.70;99.90;;;;;;4967135;28;20189;-77
2021/12/22 01:57:19;;;;;;;18.43;12.40;;;-1.70;99.90;;;;;;4978626;28;20189;-77
2021/12/22 01:59:47;;;;;;;21.70;12.60;;;-1.70;99.90;;;;;;4994012;28;20287;-77
2021/12/22 02:02:18;;;;;;;16.90;12.63;;;-1.70;99.90;;;;;;4994420;28;20180;-79
2021/12/22 02:04:45;;;;;;;21.98;14.63;;;-1.80;99.90;;;;;;4977097;28;20414;-78
2021/12/22 02:07:11;;;;;;;18.63;12.53;;;-1.80;99.90;;;;;;4979093;28;20191;-78
2021/12/22 02:10:01;;;;;;;16.93;12.23;;;-1.70;99.90;;;;;;4976689;28;20206;-77
2021/12/22 02:12:30;;;;;;;23.10;13.43;;;-1.80;99.90;;;;;;4998964;28;20180;-78
2021/12/22 02:14:55;;;;;;;19.50;12.17;;;-1.70;99.90;;;;;;4972236;29;20196;-76
2021/12/22 02:17:21;;;;;;;18.60;11.13;;;-1.70;99.90;;;;;;4970750;28;20185;-77
2021/12/22 02:19:48;;;;;;;22.07;12.10;;;-1.60;99.90;;;;;;4973874;28;20235;-77
2021/12/22 02:22:17;;;;;;;18.83;11.60;;;-1.80;99.90;;;;;;5013688;28;20192;-78
2021/12/22 02:25:01;;;;;;;18.43;12.40;;;-2.00;99.90;;;;;;5013573;28;20195;-77
2021/12/22 02:27:35;;;;;;;19.50;12.00;;;-2.20;99.90;;;;;;4978483;28;20179;-77
2021/12/22 02:30:05;;;;;;;19.87;11.67;;;-2.30;99.90;;;;;;4967456;28;20575;-78
2021/12/22 02:35:17;;;;;;;19.13;11.87;;;-2.60;99.90;;;;;;4977380;28;20181;-78
2021/12/22 02:37:46;;;;;;;18.83;11.80;;;-2.60;99.90;;;;;;4967177;28;20208;-77
2021/12/22 02:40:17;;;;;;;17.20;11.03;;;-2.70;99.90;;;;;;4958452;28;20180;-78
2021/12/22 02:42:46;;;;;;;17.80;12.00;;;-2.80;99.90;;;;;;4966309;28;20199;-78
2021/12/22 02:45:17;;;;;;;17.03;11.03;;;-2.70;99.90;;;;;;4954285;28;20201;-77
2021/12/22 02:47:43;;;;;;;18.10;11.40;;;-2.70;99.90;;;;;;4970880;28;20647;-79
2021/12/22 02:50:11;;;;;;;20.20;11.53;;;-2.60;99.90;;;;;;4954546;28;20187;-77
2021/12/22 02:55:52;;;;;;;16.63;10.63;;;-2.60;99.90;;;;;;5030807;28;20553;-78
2021/12/22 03:01:02;;;;;;;20.27;11.00;;;-2.40;99.90;;;;;;4988757;28;20184;-79
2021/12/22 03:06:12;;;;;;;16.43;10.20;;;-2.50;99.90;;;;;;4974754;28;20213;-77
2021/12/22 03:08:37;;;;;;;18.23;10.43;;;-2.60;99.90;;;;;;4974606;28;20200;-77
2021/12/22 03:11:03;;;;;;;17.30;11.03;;;-2.50;99.90;;;;;;4998054;28;20180;-79
2021/12/22 03:13:31;;;;;;;16.50;10.80;;;-2.40;99.90;;;;;;4959050;28;20186;-78
2021/12/22 03:15:57;;;;;;;17.40;10.17;;;-2.40;99.90;;;;;;4958885;28;20539;-77
2021/12/22 03:18:23;;;;;;;17.90;10.80;;;-2.40;99.90;;;;;;4960234;28;20211;-77
2021/12/22 03:21:09;;;;;;;15.70;10.13;;;-2.40;99.90;;;;;;4948323;29;20230;-78
2021/12/22 03:23:35;;;;;;;15.77;9.73;;;-2.60;99.90;;;;;;4956121;29;20181;-78
2021/12/22 03:26:01;;;;;;;18.97;10.70;;;-2.90;99.90;;;;;;4967720;28;20209;-78
2021/12/22 03:28:26;;;;;;;15.00;9.73;;;-3.10;99.90;;;;;;5019125;28;20197;-77
2021/12/22 03:30:53;;;;;;;16.73;10.90;;;-3.10;99.90;;;;;;4956903;28;20283;-78
2021/12/22 03:33:19;;;;;;;20.47;10.37;;;-3.30;99.90;;;;;;4976273;28;20230;-78
2021/12/22 03:35:45;;;;;;;15.80;9.97;;;-3.40;99.90;;;;;;4960929;28;20188;-78
2021/12/22 03:38:10;;;;;;;19.60;10.50;;;-3.30;99.90;;;;;;4960998;28;20568;-78
2021/12/22 03:40:38;;;;;;;17.47;10.53;;;-3.30;99.90;;;;;;4959580;28;20184;-78
2021/12/22 03:43:04;;;;;;;18.40;9.53;;;-3.20;99.90;;;;;;4960929;28;20204;-78
2021/12/22 03:45:29;;;;;;;16.30;9.97;;;-3.10;99.90;;;;;;4958915;28;20211;-78
2021/12/22 03:47:55;;;;;;;16.77;9.13;;;-3.10;99.90;;;;;;4963935;28;20185;-78
2021/12/22 03:50:21;;;;;;;16.27;9.87;;;-3.00;99.90;;;;;;4951084;29;20219;-77
2021/12/22 03:52:49;;;;;;;15.67;9.93;;;-3.00;99.90;;;;;;4959683;28;20208;-78
2021/12/22 03:55:15;;;;;;;17.03;10.60;;;-3.00;99.90;;;;;;4959766;28;20185;-78
2021/12/22 03:57:41;;;;;;;15.93;10.67;;;-3.20;99.90;;;;;;4959599;28;20264;-78
2021/12/22 04:00:10;;;;;;;22.90;10.63;;;-3.30;99.90;;;;;;4940933;28;20633;-79
2021/12/22 04:02:37;;;;;;;17.13;10.20;;;-3.40;99.90;;;;;;4962153;28;20675;-77
2021/12/22 04:05:03;;;;;;;14.30;9.93;;;-3.50;99.90;;;;;;4964462;28;20181;-78
2021/12/22 04:07:29;;;;;;;18.87;10.10;;;-3.50;99.90;;;;;;4974120;28;20185;-77
2021/12/22 04:09:55;;;;;;;15.10;10.10;;;-3.50;99.90;;;;;;4957320;28;20212;-78
2021/12/22 04:12:20;;;;;;;21.17;9.97;;;-3.60;99.90;;;;;;4958415;28;20187;-77
2021/12/22 04:14:46;;;;;;;15.97;9.97;;;-3.70;99.90;;;;;;4974325;28;20184;-78
2021/12/22 04:17:12;;;;;;;18.47;10.60;;;-3.80;99.90;;;;;;4972829;28;20559;-78
2021/12/22 04:19:37;;;;;;;16.83;10.03;;;-3.80;99.90;;;;;;4968228;28;20197;-78
2021/12/22 04:22:10;;;;;;;18.47;10.70;;;-3.70;99.90;;;;;;4959099;28;20187;-78
2021/12/22 04:24:36;;;;;;;17.27;10.70;;;-3.80;99.90;;;;;;4974411;28;20198;-78
2021/12/22 04:27:01;;;;;;;16.20;10.67;;;-3.70;99.90;;;;;;4946813;29;20292;-78
2021/12/22 04:29:27;;;;;;;16.40;10.23;;;-3.70;99.90;;;;;;4938147;28;20201;-77
2021/12/22 04:31:52;;;;;;;19.30;10.33;;;-3.50;99.90;;;;;;4968700;28;20237;-77
2021/12/22 04:34:18;;;;;;;17.13;10.60;;;-3.40;99.90;;;;;;4965959;28;20184;-77
2021/12/22 04:36:44;;;;;;;16.13;10.27;;;-3.50;99.90;;;;;;4958107;28;20547;-77
2021/12/22 04:39:10;;;;;;;20.60;11.60;;;-3.80;99.90;;;;;;4966369;28;20204;-77
2021/12/22 04:41:36;;;;;;;19.63;11.53;;;-4.00;99.90;;;;;;4957103;28;20184;-78
2021/12/22 04:44:03;;;;;;;18.57;10.60;;;-4.10;99.90;;;;;;4957864;28;20274;-78
2021/12/22 04:46:28;;;;;;;17.00;10.73;;;-4.00;99.90;;;;;;4984717;28;20212;-78
2021/12/22 04:48:54;;;;;;;16.87;10.77;;;-4.00;99.90;;;;;;4965571;28;20681;-78
2021/12/22 04:51:28;;;;;;;19.87;11.50;;;-4.20;99.90;;;;;;4956252;28;20288;-78
2021/12/22 04:54:20;;;;;;;19.43;12.07;;;-4.30;99.90;;;;;;4955500;28;20215;-77
2021/12/22 04:56:40;;;;;;;17.20;11.10;;;-4.40;99.90;;;;;;4998570;28;20598;-78
2021/12/22 04:59:06;;;;;;;18.63;10.43;;;-4.30;99.90;;;;;;4956643;28;20230;-78
2021/12/22 05:01:31;;;;;;;21.17;12.17;;;-4.30;99.90;;;;;;4956531;28;20184;-78
2021/12/22 05:03:57;;;;;;;20.03;11.17;;;-4.20;99.90;;;;;;4982304;28;20185;-78
2021/12/22 05:06:24;;;;;;;18.57;11.07;;;-4.10;99.90;;;;;;4959012;28;20208;-78
2021/12/22 05:08:51;;;;;;;19.03;10.17;;;-4.00;99.90;;;;;;4972646;28;20667;-78
2021/12/22 05:11:16;;;;;;;17.13;10.33;;;-3.90;99.90;;;;;;4956432;28;20271;-78
2021/12/22 05:13:42;;;;;;;17.10;10.63;;;-3.40;99.90;;;;;;4953858;28;20209;-78
2021/12/22 05:16:15;;;;;;;19.07;10.97;;;-3.50;99.90;;;;;;4957021;28;20275;-78
2021/12/22 05:21:21;;;;;;;17.50;10.23;;;-3.80;99.90;;;;;;5057260;28;20178;-77
2021/12/22 05:23:48;;;;;;;21.30;11.30;;;-3.90;99.90;;;;;;5037471;28;20251;-77
2021/12/22 05:26:14;;;;;;;16.83;10.60;;;-4.20;99.90;;;;;;4991546;28;20283;-77
2021/12/22 05:28:39;;;;;;;19.63;10.67;;;-4.20;99.90;;;;;;4955407;28;20232;-77
2021/12/22 05:31:05;;;;;;;22.23;11.33;;;-4.20;99.90;;;;;;4959838;28;20259;-77
2021/12/22 05:33:31;;;;;;;21.17;10.90;;;-4.20;99.90;;;;;;4979709;28;20193;-77
2021/12/22 05:35:57;;;;;;;20.17;11.00;;;-4.20;99.90;;;;;;4957341;28;20187;-77
2021/12/22 05:38:23;;;;;;;19.27;11.03;;;-4.20;99.90;;;;;;4957380;28;20208;-77
2021/12/22 05:40:54;;;;;;;17.80;10.33;;;-4.20;99.90;;;;;;4955810;28;20187;-77
2021/12/22 05:43:19;;;;;;;16.87;10.10;;;-4.20;99.90;;;;;;4960612;28;20180;-77
2021/12/22 05:45:45;;;;;;;19.13;11.10;;;-4.00;99.90;;;;;;4968997;28;20219;-78
2021/12/22 05:48:26;;;;;;;17.57;10.80;;;-4.00;99.90;;;;;;5115135;27;20487;-79
2021/12/22 05:50:53;;;;;;;19.53;11.47;;;-3.90;99.90;;;;;;5096750;28;20267;-78
2021/12/22 05:53:19;;;;;;;17.03;10.00;;;-3.80;99.90;;;;;;5085457;28;20184;-78
2021/12/22 05:55:45;;;;;;;18.47;11.27;;;-3.90;99.90;;;;;;5078777;28;20173;-78
2021/12/22 05:58:11;;;;;;;19.17;10.50;;;-4.00;99.90;;;;;;5098613;28;20211;-78
2021/12/22 06:00:36;;;;;;;17.70;11.03;;;-4.10;99.90;;;;;;5096279;28;20179;-78
2021/12/22 06:03:02;;;;;;;17.97;10.10;;;-4.20;99.90;;;;;;5099118;28;20178;-78
2021/12/22 06:05:28;;;;;;;19.40;10.77;;;-4.10;99.90;;;;;;5080185;28;20275;-78
2021/12/22 06:07:57;;;;;;;19.80;10.87;;;-4.00;99.90;;;;;;5078593;28;20580;-79
2021/12/22 06:10:23;;;;;;;19.37;10.57;;;-4.10;99.90;;;;;;5115590;28;20194;-79
2021/12/22 06:12:48;;;;;;;21.30;11.27;;;-4.20;99.90;;;;;;5096528;28;20171;-79
2021/12/22 06:15:14;;;;;;;19.00;11.37;;;-4.20;99.90;;;;;;5124543;28;20228;-78
2021/12/22 06:17:40;;;;;;;22.70;11.33;;;-4.20;99.90;;;;;;5103619;28;20184;-79
2021/12/22 06:20:06;;;;;;;21.33;11.17;;;-4.10;99.90;;;;;;5118740;28;20542;-78
2021/12/22 06:22:34;;;;;;;21.03;10.73;;;-4.30;99.90;;;;;;5116475;28;20182;-77
2021/12/22 06:25:00;;;;;;;23.57;11.70;;;-4.20;99.90;;;;;;5114914;28;20191;-78
2021/12/22 06:27:25;;;;;;;19.50;10.93;;;-4.30;99.90;;;;;;5116368;28;20206;-78
2021/12/22 06:29:51;;;;;;;22.07;12.17;;;-4.40;99.90;;;;;;5115131;28;20195;-77
2021/12/22 06:32:17;;;;;;;18.67;10.53;;;-4.20;99.90;;;;;;5076485;28;20188;-77
2021/12/22 06:34:46;;;;;;;22.23;11.13;;;-4.20;99.90;;;;;;5109592;28;20604;-77
2021/12/22 06:37:13;;;;;;;19.93;10.63;;;-4.50;99.90;;;;;;5075336;28;20628;-77
2021/12/22 06:39:39;;;;;;;20.57;11.03;;;-4.70;99.90;;;;;;5092231;28;20192;-78
2021/12/22 06:42:07;;;;;;;18.73;10.83;;;-4.70;99.90;;;;;;5089343;28;20184;-77
2021/12/22 06:44:33;;;;;;;18.37;10.07;;;-4.70;99.90;;;;;;5095892;28;20266;-78
2021/12/22 06:46:59;;;;;;;21.83;11.97;;;-4.60;99.90;;;;;;5095465;28;20302;-78
2021/12/22 06:49:25;;;;;;;21.93;11.67;;;-4.50;99.90;;;;;;5079333;28;20253;-77
2021/12/22 06:51:51;;;;;;;20.63;11.53;;;-4.50;99.90;;;;;;5077562;28;20164;-79
2021/12/22 06:54:17;;;;;;;21.83;10.80;;;-4.50;99.90;;;;;;5095307;28;20263;-77
2021/12/22 06:56:43;;;;;;;22.80;11.70;;;-4.50;99.90;;;;;;5094706;28;20218;-77
2021/12/22 06:59:12;;;;;;;23.33;12.03;;;-4.50;99.90;;;;;;5079977;28;20196;-77
2021/12/22 07:01:38;;;;;;;21.60;12.30;;;-4.50;99.90;;;;;;5081391;28;20180;-76
2021/12/22 07:04:04;;;;;;;24.03;12.43;;;-4.30;99.90;;;;;;5083058;28;20190;-77
2021/12/22 07:06:30;;;;;;;23.20;11.33;;;-4.10;99.90;;;;;;5088728;28;20634;-78
2021/12/22 07:08:57;;;;;;;21.53;11.90;;;-4.20;99.90;;;;;;5084634;28;20565;-77
2021/12/22 07:11:27;;;;;;;21.87;12.40;;;-4.40;99.90;;;;;;5077183;28;20238;-78
2021/12/22 07:13:53;;;;;;;23.87;11.60;;;-4.50;99.90;;;;;;5061122;28;20173;-78
2021/12/22 07:16:19;;;;;;;18.53;11.03;;;-4.50;99.90;;;;;;5077502;28;20197;-77
2021/12/22 07:18:45;;;;;;;20.47;11.50;;;-4.50;99.90;;;;;;5077854;28;20259;-77
2021/12/22 07:21:11;;;;;;;19.17;10.30;;;-4.60;99.90;;;;;;5077533;28;20206;-78
2021/12/22 07:23:37;;;;;;;22.37;11.30;;;-4.70;99.90;;;;;;5079001;28;20252;-78
2021/12/22 07:26:02;;;;;;;22.20;11.03;;;-4.70;99.90;;;;;;5082830;28;20179;-79
2021/12/22 07:28:28;;;;;;;21.47;10.83;;;-4.60;99.90;;;;;;5081501;28;20222;-77
2021/12/22 07:30:54;;;;;;;21.70;11.37;;;-4.70;99.90;;;;;;5079588;28;20221;-77
2021/12/22 07:33:20;;;;;;;22.73;11.03;;;-4.70;99.90;;;;;;5080178;28;20196;-78
2021/12/22 07:35:53;;;;;;;22.00;10.97;;;-4.70;99.90;;;;;;5096568;28;20195;-78
2021/12/22 07:38:25;;;;;;;21.53;11.30;;;-4.60;99.90;;;;;;5080382;28;20541;-78
2021/12/22 07:40:52;;;;;;;19.90;10.87;;;-4.70;99.90;;;;;;5080279;28;20176;-78
2021/12/22 07:43:18;;;;;;;21.37;11.43;;;-4.80;99.90;;;;;;5080200;28;20645;-78
2021/12/22 07:45:44;;;;;;;22.20;11.33;;;-5.00;99.90;;;;;;5062274;28;20179;-78
2021/12/22 07:48:09;;;;;;;26.80;12.10;;;-5.00;99.90;;;;;;5062248;28;20277;-78
2021/12/22 07:50:35;;;;;;;22.83;10.97;;;-4.90;99.90;;;;;;5081387;28;20540;-78
2021/12/22 07:53:01;;;;;;;21.70;11.07;;;-4.80;99.90;;;;;;5082733;28;20266;-78
2021/12/22 07:55:28;;;;;;;23.80;12.67;;;-4.80;99.90;;;;;;5077679;28;20184;-78
2021/12/22 07:57:54;;;;;;;25.87;12.30;;;-4.80;99.90;;;;;;5077179;28;20177;-78
2021/12/22 08:00:20;;;;;;;25.33;11.90;;;-4.80;99.90;;;;;;5074638;28;20202;-79
2021/12/22 08:02:45;;;;;;;26.57;12.07;;;-4.90;99.90;;;;;;5086840;28;20185;-80
2021/12/22 08:05:12;;;;;;;25.70;12.07;;;-4.90;99.90;;;;;;5082002;28;20245;-79
2021/12/22 08:07:38;;;;;;;26.57;12.17;;;-4.90;99.90;;;;;;5083207;28;20197;-81
2021/12/22 08:10:05;;;;;;;29.43;12.70;;;-4.80;99.90;;;;;;5079021;28;20197;-78
2021/12/22 08:12:31;;;;;;;25.33;11.93;;;-4.70;99.90;;;;;;5081705;28;20205;-79
2021/12/22 08:14:57;;;;;;;25.43;12.37;;;-4.60;99.90;;;;;;5083090;28;20185;-77
2021/12/22 08:17:23;;;;;;;28.37;12.97;;;-4.40;99.90;;;;;;5095619;28;20173;-76
2021/12/22 08:19:49;;;;;;;29.00;12.03;;;-4.40;99.90;;;;;;5089938;28;20184;-77
2021/12/22 08:22:15;;;;;;;24.17;12.23;;;-4.40;99.90;;;;;;5104887;28;20161;-76
2021/12/22 08:24:41;;;;;;;27.60;13.47;;;-4.30;99.90;;;;;;5100416;28;20172;-79
2021/12/22 08:27:06;;;;;;;27.63;13.40;;;-4.30;99.90;;;;;;5100106;28;20218;-78
2021/12/22 08:29:32;;;;;;;25.67;13.20;;;-4.30;99.90;;;;;;5100060;28;20208;-78
2021/12/22 08:31:58;;;;;;;24.67;12.30;;;-4.30;99.90;;;;;;5100839;28;20192;-80
2021/12/22 08:34:28;;;;;;;24.23;12.57;;;-4.30;99.90;;;;;;5100705;28;20206;-83
2021/12/22 08:39:43;;;;;;;27.47;12.40;;;-4.30;99.90;;;;;;5105520;28;20192;-75
2021/12/22 08:42:10;;;;;;;23.13;12.07;;;-4.20;99.90;;;;;;5085494;28;20192;-76
2021/12/22 08:44:37;;;;;;;27.27;12.47;;;-4.10;99.90;;;;;;5090355;28;20183;-76
2021/12/22 08:47:03;;;;;;;26.30;12.90;;;-4.20;99.90;;;;;;5100986;28;20199;-75
2021/12/22 08:49:29;;;;;;;28.13;13.13;;;-4.20;99.90;;;;;;5095392;28;20219;-76
2021/12/22 08:51:55;;;;;;;25.33;12.17;;;-4.20;99.90;;;;;;5110428;28;20182;-76
2021/12/22 08:54:21;;;;;;;25.13;12.77;;;-4.20;99.90;;;;;;5096357;28;20204;-77
2021/12/22 08:56:46;;;;;;;26.70;12.17;;;-4.20;99.90;;;;;;5112858;28;20186;-78
2021/12/22 08:59:14;;;;;;;25.20;11.30;;;-4.10;99.90;;;;;;5085583;28;20196;-78
2021/12/22 09:01:41;;;;;;;30.90;13.67;;;-3.90;99.90;;;;;;5089716;28;20187;-78
2021/12/22 09:04:07;;;;;;;26.97;13.00;;;-3.80;99.90;;;;;;5091906;28;20191;-79
2021/12/22 09:06:33;;;;;;;24.77;12.43;;;-3.90;99.90;;;;;;5072054;28;20276;-79
2021/12/22 09:08:59;;;;;;;28.93;13.47;;;-3.90;99.90;;;;;;5059465;28;20197;-75
2021/12/22 09:11:26;;;;;;;27.63;12.50;;;-4.00;99.90;;;;;;5066941;28;20173;-76
2021/12/22 09:13:52;;;;;;;27.83;13.63;;;-3.80;99.90;;;;;;5077321;28;20206;-76
2021/12/22 09:16:18;;;;;;;28.60;13.17;;;-3.80;99.90;;;;;;5087492;28;20294;-76
2021/12/22 09:18:44;;;;;;;25.97;12.97;;;-3.80;99.90;;;;;;5081522;28;20219;-76
2021/12/22 09:21:25;;;;;;;29.20;13.63;;;-3.70;99.90;;;;;;5066571;28;20627;-76
2021/12/22 09:23:51;;;;;;;25.53;12.73;;;-3.40;99.90;;;;;;5078303;28;20177;-77
2021/12/22 09:26:17;;;;;;;30.97;13.63;;;-3.30;99.90;;;;;;5072554;28;20177;-77
2021/12/22 09:28:43;;;;;;;28.13;13.10;;;-3.20;99.90;;;;;;5073973;28;20196;-81
2021/12/22 09:31:09;;;;;;;27.93;13.93;;;-3.20;99.90;;;;;;5095401;28;20168;-82
2021/12/22 09:33:41;;;;;;;27.57;13.83;;;-3.20;99.90;;;;;;5085283;28;20171;-82
2021/12/22 09:36:09;;;;;;;29.53;12.57;;;-3.20;99.90;;;;;;5092397;28;20203;-83
2021/12/22 09:38:37;;;;;;;28.90;13.93;;;-2.90;99.90;;;;;;5080191;28;20205;-81
2021/12/22 09:41:04;;;;;;;30.07;14.60;;;-2.80;99.90;;;;;;5083838;28;20169;-82
2021/12/22 09:43:32;;;;;;;28.50;13.47;;;-2.70;99.90;;;;;;5084164;28;20191;-83
2021/12/22 09:46:06;;;;;;;29.20;13.13;;;-2.80;99.90;;;;;;5086138;28;20182;-82
2021/12/22 09:48:51;;;;;;;31.17;13.97;;;-2.80;99.90;;;;;;5086467;28;20207;-81
2021/12/22 09:53:50;;;;;;;26.57;13.63;;;-2.50;99.90;;;;;;5101574;28;20176;-81
2021/12/22 09:56:20;;;;;;;32.60;14.33;;;-2.40;99.90;;;;;;5092134;28;20180;-80
2021/12/22 09:58:46;;;;;;;28.83;14.50;;;-2.40;99.90;;;;;;5102700;28;20723;-80
2021/12/22 10:01:13;;;;;;;34.67;15.73;;;-2.40;99.90;;;;;;5078969;28;20211;-81
2021/12/22 10:03:44;;;;;;;30.17;15.00;;;-2.10;99.90;;;;;;5096741;28;20620;-81
2021/12/22 10:06:10;;;;;;;27.37;13.67;;;-2.10;99.90;;;;;;5092585;28;20183;-82
2021/12/22 10:08:39;;;;;;;32.03;15.07;;;-2.20;99.90;;;;;;5069977;28;20192;-84
2021/12/22 10:11:10;;;;;;;29.17;13.13;;;-2.20;99.90;;;;;;5083031;28;20166;-82
2021/12/22 10:13:44;;;;;;;33.83;15.57;;;-2.10;99.90;;;;;;5081677;28;20655;-81
2021/12/22 10:16:13;;;;;;;31.53;15.03;;;-2.00;99.90;;;;;;5093175;28;20188;-80
2021/12/22 10:18:40;;;;;;;33.50;15.77;;;-1.90;99.90;;;;;;5080430;28;20197;-81
2021/12/22 10:21:11;;;;;;;35.00;14.67;;;-1.90;99.90;;;;;;5087771;28;20188;-81
2021/12/22 10:23:44;;;;;;;28.77;14.27;;;-1.90;99.90;;;;;;5096457;28;20180;-81
2021/12/22 10:26:16;;;;;;;26.90;14.53;;;-1.80;99.90;;;;;;5079337;28;20168;-80
2021/12/22 10:29:04;;;;;;;28.13;14.40;;;-1.60;99.90;;;;;;5079978;28;20204;-80
2021/12/22 10:31:46;;;;;;;25.37;13.63;;;-1.50;99.90;;;;;;5088261;28;20180;-81
2021/12/22 10:34:15;;;;;;;28.67;14.83;;;-1.40;99.90;;;;;;5099409;28;20172;-79
2021/12/22 10:37:00;;;;;;;30.87;16.07;;;-1.40;99.90;;;;;;5085559;28;20184;-79
2021/12/22 10:39:29;;;;;;;31.00;15.20;;;-1.40;99.90;;;;;;5076503;28;20287;-78
2021/12/22 10:42:15;;;;;;;31.67;14.23;;;-1.30;99.90;;;;;;5087411;28;20177;-78
2021/12/22 10:44:47;;;;;;;32.30;15.87;;;-1.20;99.90;;;;;;5078597;28;20175;-78
2021/12/22 10:47:22;;;;;;;32.20;14.93;;;-1.00;99.90;;;;;;5088703;28;20216;-78
2021/12/22 10:49:59;;;;;;;28.17;13.80;;;-0.90;99.90;;;;;;5080663;28;20198;-78
2021/12/22 10:52:25;;;;;;;27.50;13.73;;;-0.90;99.90;;;;;;5077804;28;20168;-77
2021/12/22 10:55:09;;;;;;;29.67;14.83;;;-0.80;99.90;;;;;;5087661;28;21487;-78
2021/12/22 10:57:52;;;;;;;33.10;14.97;;;-0.80;99.90;;;;;;5079121;28;20206;-78
2021/12/22 11:00:22;;;;;;;31.67;14.80;;;-0.80;99.90;;;;;;5083968;28;20553;-78
2021/12/22 11:03:07;;;;;;;31.10;14.83;;;-0.90;99.90;;;;;;5082612;28;20176;-78
2021/12/22 11:05:47;;;;;;;27.30;14.83;;;-1.00;99.90;;;;;;5076966;28;20179;-78
2021/12/22 11:08:26;;;;;;;28.83;15.60;;;-0.90;99.90;;;;;;5078907;28;20203;-78
2021/12/22 11:10:53;;;;;;;27.43;14.17;;;-0.90;99.90;;;;;;5074771;28;20178;-77
2021/12/22 11:13:20;;;;;;;32.97;16.10;;;-1.10;99.90;;;;;;5073422;28;20187;-78
2021/12/22 11:15:46;;;;;;;26.23;14.13;;;-1.10;99.90;;;;;;5074303;28;20179;-78
2021/12/22 11:18:24;;;;;;;28.93;15.37;;;-1.30;99.90;;;;;;5081166;28;20269;-79
2021/12/22 11:21:22;;;;;;;28.33;14.47;;;-1.30;99.90;;;;;;5074813;28;20177;-78
2021/12/22 11:23:48;;;;;;;27.17;14.07;;;-1.30;99.90;;;;;;5073537;28;20576;-79
2021/12/22 11:26:15;;;;;;;25.87;14.00;;;-1.30;99.90;;;;;;5077616;28;20257;-79
2021/12/22 11:28:44;;;;;;;30.90;14.67;;;-1.20;99.90;;;;;;5075275;28;20243;-79
2021/12/22 11:31:11;;;;;;;25.07;12.93;;;-1.20;99.90;;;;;;5082676;28;20675;-78
2021/12/22 11:33:39;;;;;;;26.67;14.63;;;-1.10;99.90;;;;;;5079602;28;20227;-79
2021/12/22 11:36:07;;;;;;;23.77;13.60;;;-1.10;99.90;;;;;;5081450;28;20169;-78
2021/12/22 11:38:33;;;;;;;24.63;14.43;;;-1.10;99.90;;;;;;5083475;28;20297;-78
2021/12/22 11:41:19;;;;;;;28.53;15.43;;;-1.10;99.90;;;;;;5077417;28;20266;-78
2021/12/22 11:43:45;;;;;;;26.50;15.17;;;-1.10;99.90;;;;;;5077023;28;20182;-79
2021/12/22 11:46:13;;;;;;;27.47;14.13;;;-1.00;99.90;;;;;;5088409;28;20176;-79
2021/12/22 11:48:40;;;;;;;28.97;15.10;;;-0.90;99.90;;;;;;5078212;28;20557;-77
2021/12/22 11:51:25;;;;;;;30.20;14.90;;;-0.90;99.90;;;;;;5080286;28;20627;-79
2021/12/22 11:53:53;;;;;;;30.17;14.80;;;-0.90;99.90;;;;;;5084106;28;20176;-80
2021/12/22 11:56:39;;;;;;;26.37;14.47;;;-0.80;99.90;;;;;;5083609;28;20244;-80
2021/12/22 11:59:24;;;;;;;24.87;13.47;;;-0.90;99.90;;;;;;5080105;28;20198;-78
2021/12/22 12:02:32;;;;;;;25.17;14.10;;;-0.80;99.90;;;;;;5090607;28;20238;-78
2021/12/22 12:05:18;;;;;;;26.03;14.80;;;-0.70;99.90;;;;;;5076085;28;20635;-78
2021/12/22 12:07:55;;;;;;;26.70;14.67;;;-0.70;99.90;;;;;;5073109;28;20242;-78
2021/12/22 12:10:44;;;;;;;29.80;14.70;;;-0.90;99.90;;;;;;5078772;28;20168;-78
2021/12/22 12:13:36;;;;;;;26.03;14.23;;;-1.10;99.90;;;;;;5083345;28;20250;-78
2021/12/22 12:22:29;;;;;;;28.93;15.20;;;-1.20;99.90;;;;;;5092387;28;20216;-77
2021/12/22 12:24:54;;;;;;;26.90;13.43;;;-1.20;99.90;;;;;;5061317;28;20186;-77
2021/12/22 12:27:40;;;;;;;26.57;14.13;;;-1.20;99.90;;;;;;5089746;28;20225;-78
2021/12/22 12:30:21;;;;;;;26.70;13.87;;;-1.10;99.90;;;;;;5078519;28;20173;-78
2021/12/22 12:32:50;;;;;;;29.77;15.10;;;-1.20;99.90;;;;;;5088803;28;20254;-79
2021/12/22 12:38:25;;;;;;;28.17;14.23;;;-1.00;99.90;;;;;;5092579;28;20176;-79
2021/12/22 12:41:06;;;;;;;26.60;15.07;;;-0.80;99.90;;;;;;5089110;28;20225;-78
2021/12/22 12:46:35;;;;;;;29.63;14.20;;;-0.90;99.90;;;;;;5090971;28;20173;-78
2021/12/22 12:49:07;;;;;;;28.20;14.60;;;-1.10;99.90;;;;;;5066813;28;20298;-79
2021/12/22 12:51:35;;;;;;;27.13;15.10;;;-1.10;99.90;;;;;;5071745;28;20182;-78
2021/12/22 12:54:05;;;;;;;26.90;15.43;;;-1.00;99.90;;;;;;5076597;28;20169;-79
2021/12/22 12:57:14;;;;;;;28.00;15.33;;;-1.00;99.90;;;;;;5078745;28;20184;-79
2021/12/22 12:59:40;;;;;;;27.33;15.63;;;-1.10;99.90;;;;;;5072680;28;20196;-79
2021/12/22 13:02:27;;;;;;;30.50;15.60;;;-1.10;99.90;;;;;;5073630;28;20170;-79
2021/12/22 13:05:13;;;;;;;27.23;14.53;;;-1.10;99.90;;;;;;5075490;28;20174;-78
2021/12/22 13:07:39;;;;;;;26.83;15.37;;;-1.00;99.90;;;;;;5072792;28;20187;-78
2021/12/22 13:10:12;;;;;;;28.10;15.50;;;-1.10;99.90;;;;;;5079200;28;20198;-77
2021/12/22 13:17:59;;;;;;;29.13;15.60;;;-1.00;99.90;;;;;;5086289;28;20217;-79
2021/12/22 13:20:34;;;;;;;30.77;15.60;;;-1.10;99.90;;;;;;5076639;28;20185;-78